sensor_id;sensor_type;location;lat;lon;timestamp;P1;durP1;ratioP1;P2;durP2;ratioP2
41233;SDS011;26968;42.686;23.352;2023-06-19T00:01:14;9.48;;;5.18;;
41233;SDS011;26968;42.686;23.352;2023-06-19T00:03:39;6.05;;;5.15;;
41233;SDS011;26968;42.686;23.352;2023-06-19T00:06:05;7.80;;;5.75;;
41233;SDS011;26968;42.686;23.352;2023-06-19T00:08:31;9.00;;;5.60;;
41233;SDS011;26968;42.686;23.352;2023-06-19T00:10:56;7.75;;;5.22;;
41233;SDS011;26968;42.686;23.352;2023-06-19T00:13:22;10.13;;;5.15;;
41233;SDS011;26968;42.686;23.352;2023-06-19T00:15:47;13.57;;;5.57;;
41233;SDS011;26968;42.686;23.352;2023-06-19T00:18:13;10.23;;;4.70;;
41233;SDS011;26968;42.686;23.352;2023-06-19T00:20:41;6.32;;;5.13;;
41233;SDS011;26968;42.686;23.352;2023-06-19T00:23:10;12.35;;;4.70;;
41233;SDS011;26968;42.686;23.352;2023-06-19T00:25:39;9.32;;;5.55;;
41233;SDS011;26968;42.686;23.352;2023-06-19T00:28:05;7.55;;;4.93;;
41233;SDS011;26968;42.686;23.352;2023-06-19T00:30:36;7.05;;;5.18;;
41233;SDS011;26968;42.686;23.352;2023-06-19T00:33:02;6.75;;;5.05;;
41233;SDS011;26968;42.686;23.352;2023-06-19T00:35:28;10.85;;;5.03;;
41233;SDS011;26968;42.686;23.352;2023-06-19T00:37:54;6.82;;;5.22;;
41233;SDS011;26968;42.686;23.352;2023-06-19T00:40:21;6.00;;;4.45;;
41233;SDS011;26968;42.686;23.352;2023-06-19T00:42:53;7.88;;;5.57;;
41233;SDS011;26968;42.686;23.352;2023-06-19T00:45:18;9.50;;;5.00;;
41233;SDS011;26968;42.686;23.352;2023-06-19T00:47:44;9.48;;;5.28;;
41233;SDS011;26968;42.686;23.352;2023-06-19T00:50:10;8.95;;;4.80;;
41233;SDS011;26968;42.686;23.352;2023-06-19T00:52:36;7.25;;;5.07;;
41233;SDS011;26968;42.686;23.352;2023-06-19T00:55:02;5.78;;;4.68;;
41233;SDS011;26968;42.686;23.352;2023-06-19T00:57:29;9.88;;;5.00;;
41233;SDS011;26968;42.686;23.352;2023-06-19T00:59:56;8.95;;;5.05;;
41233;SDS011;26968;42.686;23.352;2023-06-19T01:02:22;8.07;;;5.18;;
41233;SDS011;26968;42.686;23.352;2023-06-19T01:04:49;9.75;;;4.70;;
41233;SDS011;26968;42.686;23.352;2023-06-19T01:07:17;8.98;;;5.55;;
41233;SDS011;26968;42.686;23.352;2023-06-19T01:09:53;12.57;;;5.55;;
41233;SDS011;26968;42.686;23.352;2023-06-19T01:12:23;5.90;;;4.45;;
41233;SDS011;26968;42.686;23.352;2023-06-19T01:14:58;9.25;;;4.53;;
41233;SDS011;26968;42.686;23.352;2023-06-19T01:17:27;7.05;;;5.20;;
41233;SDS011;26968;42.686;23.352;2023-06-19T01:19:54;9.73;;;4.78;;
41233;SDS011;26968;42.686;23.352;2023-06-19T01:22:25;11.93;;;5.43;;
41233;SDS011;26968;42.686;23.352;2023-06-19T01:24:51;7.67;;;5.23;;
41233;SDS011;26968;42.686;23.352;2023-06-19T01:27:17;11.80;;;4.85;;
41233;SDS011;26968;42.686;23.352;2023-06-19T01:29:42;7.65;;;5.45;;
41233;SDS011;26968;42.686;23.352;2023-06-19T01:32:15;11.27;;;5.30;;
41233;SDS011;26968;42.686;23.352;2023-06-19T01:34:51;7.88;;;5.38;;
41233;SDS011;26968;42.686;23.352;2023-06-19T01:37:19;8.90;;;5.00;;
41233;SDS011;26968;42.686;23.352;2023-06-19T01:39:45;6.82;;;4.80;;
41233;SDS011;26968;42.686;23.352;2023-06-19T01:42:12;10.90;;;5.20;;
41233;SDS011;26968;42.686;23.352;2023-06-19T01:44:39;7.47;;;4.90;;
41233;SDS011;26968;42.686;23.352;2023-06-19T01:47:09;9.65;;;5.22;;
41233;SDS011;26968;42.686;23.352;2023-06-19T01:49:35;11.63;;;5.50;;
41233;SDS011;26968;42.686;23.352;2023-06-19T01:52:01;13.85;;;5.47;;
41233;SDS011;26968;42.686;23.352;2023-06-19T01:54:27;9.18;;;5.10;;
41233;SDS011;26968;42.686;23.352;2023-06-19T01:56:52;13.00;;;5.78;;
41233;SDS011;26968;42.686;23.352;2023-06-19T01:59:18;8.27;;;5.30;;
41233;SDS011;26968;42.686;23.352;2023-06-19T02:01:44;9.65;;;5.97;;
41233;SDS011;26968;42.686;23.352;2023-06-19T02:04:09;10.45;;;5.70;;
41233;SDS011;26968;42.686;23.352;2023-06-19T02:06:35;11.15;;;5.50;;
41233;SDS011;26968;42.686;23.352;2023-06-19T02:09:00;13.65;;;6.22;;
41233;SDS011;26968;42.686;23.352;2023-06-19T02:11:26;9.65;;;5.40;;
41233;SDS011;26968;42.686;23.352;2023-06-19T02:13:51;15.13;;;5.85;;
41233;SDS011;26968;42.686;23.352;2023-06-19T02:16:17;15.32;;;6.15;;
41233;SDS011;26968;42.686;23.352;2023-06-19T02:18:43;9.88;;;5.95;;
41233;SDS011;26968;42.686;23.352;2023-06-19T02:21:08;15.05;;;6.22;;
41233;SDS011;26968;42.686;23.352;2023-06-19T02:23:34;9.45;;;5.82;;
41233;SDS011;26968;42.686;23.352;2023-06-19T02:25:59;11.75;;;5.68;;
41233;SDS011;26968;42.686;23.352;2023-06-19T02:28:25;10.27;;;5.85;;
41233;SDS011;26968;42.686;23.352;2023-06-19T02:30:50;9.98;;;5.78;;
41233;SDS011;26968;42.686;23.352;2023-06-19T02:33:17;7.28;;;5.07;;
41233;SDS011;26968;42.686;23.352;2023-06-19T02:35:43;9.40;;;5.68;;
41233;SDS011;26968;42.686;23.352;2023-06-19T02:38:09;8.77;;;5.32;;
41233;SDS011;26968;42.686;23.352;2023-06-19T02:40:35;9.93;;;5.95;;
41233;SDS011;26968;42.686;23.352;2023-06-19T02:43:00;8.15;;;5.40;;
41233;SDS011;26968;42.686;23.352;2023-06-19T02:45:26;10.02;;;5.93;;
41233;SDS011;26968;42.686;23.352;2023-06-19T02:47:51;12.63;;;6.22;;
41233;SDS011;26968;42.686;23.352;2023-06-19T02:50:17;14.40;;;6.50;;
41233;SDS011;26968;42.686;23.352;2023-06-19T02:52:42;13.65;;;6.82;;
41233;SDS011;26968;42.686;23.352;2023-06-19T02:55:08;15.20;;;6.50;;
41233;SDS011;26968;42.686;23.352;2023-06-19T02:57:33;11.75;;;7.20;;
41233;SDS011;26968;42.686;23.352;2023-06-19T02:59:59;9.27;;;6.40;;
41233;SDS011;26968;42.686;23.352;2023-06-19T03:02:24;11.52;;;6.78;;
41233;SDS011;26968;42.686;23.352;2023-06-19T03:04:50;10.68;;;6.40;;
41233;SDS011;26968;42.686;23.352;2023-06-19T03:07:17;15.70;;;6.53;;
41233;SDS011;26968;42.686;23.352;2023-06-19T03:09:42;14.43;;;7.15;;
41233;SDS011;26968;42.686;23.352;2023-06-19T03:12:08;17.45;;;7.13;;
41233;SDS011;26968;42.686;23.352;2023-06-19T03:14:34;9.68;;;6.65;;
41233;SDS011;26968;42.686;23.352;2023-06-19T03:16:59;12.52;;;6.85;;
41233;SDS011;26968;42.686;23.352;2023-06-19T03:19:25;9.52;;;7.18;;
41233;SDS011;26968;42.686;23.352;2023-06-19T03:21:50;9.77;;;6.80;;
41233;SDS011;26968;42.686;23.352;2023-06-19T03:24:16;13.90;;;6.90;;
41233;SDS011;26968;42.686;23.352;2023-06-19T03:26:41;11.32;;;7.22;;
41233;SDS011;26968;42.686;23.352;2023-06-19T03:29:07;12.38;;;7.15;;
41233;SDS011;26968;42.686;23.352;2023-06-19T03:31:33;14.18;;;7.30;;
41233;SDS011;26968;42.686;23.352;2023-06-19T03:33:58;10.27;;;6.75;;
41233;SDS011;26968;42.686;23.352;2023-06-19T03:36:24;14.98;;;7.05;;
41233;SDS011;26968;42.686;23.352;2023-06-19T03:38:49;14.82;;;7.15;;
41233;SDS011;26968;42.686;23.352;2023-06-19T03:41:15;10.98;;;7.50;;
41233;SDS011;26968;42.686;23.352;2023-06-19T03:43:40;14.85;;;6.85;;
41233;SDS011;26968;42.686;23.352;2023-06-19T03:46:06;21.50;;;8.65;;
41233;SDS011;26968;42.686;23.352;2023-06-19T03:48:31;28.42;;;9.18;;
41233;SDS011;26968;42.686;23.352;2023-06-19T03:50:57;18.85;;;9.05;;
41233;SDS011;26968;42.686;23.352;2023-06-19T03:53:22;21.90;;;8.68;;
41233;SDS011;26968;42.686;23.352;2023-06-19T03:55:47;15.13;;;8.63;;
41233;SDS011;26968;42.686;23.352;2023-06-19T03:58:13;19.85;;;8.40;;
41233;SDS011;26968;42.686;23.352;2023-06-19T04:00:38;17.27;;;8.50;;
41233;SDS011;26968;42.686;23.352;2023-06-19T04:03:04;21.45;;;9.38;;
41233;SDS011;26968;42.686;23.352;2023-06-19T04:05:29;16.15;;;9.45;;
41233;SDS011;26968;42.686;23.352;2023-06-19T04:07:55;28.02;;;9.40;;
41233;SDS011;26968;42.686;23.352;2023-06-19T04:10:20;18.05;;;8.80;;
41233;SDS011;26968;42.686;23.352;2023-06-19T04:12:47;20.85;;;8.25;;
41233;SDS011;26968;42.686;23.352;2023-06-19T04:15:12;20.92;;;8.75;;
41233;SDS011;26968;42.686;23.352;2023-06-19T04:17:38;22.42;;;8.75;;
41233;SDS011;26968;42.686;23.352;2023-06-19T04:20:04;26.55;;;9.80;;
41233;SDS011;26968;42.686;23.352;2023-06-19T04:22:36;19.02;;;7.60;;
41233;SDS011;26968;42.686;23.352;2023-06-19T04:25:02;21.02;;;9.68;;
41233;SDS011;26968;42.686;23.352;2023-06-19T04:27:29;14.98;;;7.28;;
41233;SDS011;26968;42.686;23.352;2023-06-19T04:29:54;34.53;;;9.77;;
41233;SDS011;26968;42.686;23.352;2023-06-19T04:32:19;13.40;;;7.57;;
41233;SDS011;26968;42.686;23.352;2023-06-19T04:34:45;19.90;;;8.40;;
41233;SDS011;26968;42.686;23.352;2023-06-19T04:37:11;14.85;;;7.13;;
41233;SDS011;26968;42.686;23.352;2023-06-19T04:39:36;11.93;;;8.00;;
41233;SDS011;26968;42.686;23.352;2023-06-19T04:42:02;19.92;;;7.88;;
41233;SDS011;26968;42.686;23.352;2023-06-19T04:44:27;12.07;;;7.10;;
41233;SDS011;26968;42.686;23.352;2023-06-19T04:46:55;18.50;;;8.75;;
41233;SDS011;26968;42.686;23.352;2023-06-19T04:49:27;21.95;;;9.70;;
41233;SDS011;26968;42.686;23.352;2023-06-19T04:51:55;17.60;;;8.93;;
41233;SDS011;26968;42.686;23.352;2023-06-19T04:54:20;17.15;;;7.53;;
41233;SDS011;26968;42.686;23.352;2023-06-19T04:56:46;33.50;;;9.13;;
41233;SDS011;26968;42.686;23.352;2023-06-19T04:59:11;24.48;;;8.40;;
41233;SDS011;26968;42.686;23.352;2023-06-19T05:01:37;15.82;;;7.50;;
41233;SDS011;26968;42.686;23.352;2023-06-19T05:04:05;20.80;;;7.75;;
41233;SDS011;26968;42.686;23.352;2023-06-19T05:06:30;17.00;;;6.78;;
41233;SDS011;26968;42.686;23.352;2023-06-19T05:08:56;8.73;;;6.95;;
41233;SDS011;26968;42.686;23.352;2023-06-19T05:11:24;11.10;;;6.78;;
41233;SDS011;26968;42.686;23.352;2023-06-19T05:13:50;19.45;;;7.47;;
41233;SDS011;26968;42.686;23.352;2023-06-19T05:16:15;16.10;;;6.78;;
41233;SDS011;26968;42.686;23.352;2023-06-19T05:18:42;13.82;;;6.50;;
41233;SDS011;26968;42.686;23.352;2023-06-19T05:21:08;9.00;;;5.85;;
41233;SDS011;26968;42.686;23.352;2023-06-19T05:23:34;11.63;;;5.82;;
41233;SDS011;26968;42.686;23.352;2023-06-19T05:26:00;11.50;;;6.10;;
41233;SDS011;26968;42.686;23.352;2023-06-19T05:28:25;8.23;;;5.85;;
41233;SDS011;26968;42.686;23.352;2023-06-19T05:30:51;11.13;;;6.18;;
41233;SDS011;26968;42.686;23.352;2023-06-19T05:33:16;10.73;;;5.40;;
41233;SDS011;26968;42.686;23.352;2023-06-19T05:35:42;9.57;;;5.57;;
41233;SDS011;26968;42.686;23.352;2023-06-19T05:38:08;14.13;;;6.07;;
41233;SDS011;26968;42.686;23.352;2023-06-19T05:40:34;12.60;;;6.25;;
41233;SDS011;26968;42.686;23.352;2023-06-19T05:42:59;10.98;;;6.03;;
41233;SDS011;26968;42.686;23.352;2023-06-19T05:45:25;15.63;;;5.57;;
41233;SDS011;26968;42.686;23.352;2023-06-19T05:47:52;10.20;;;5.47;;
41233;SDS011;26968;42.686;23.352;2023-06-19T05:50:17;7.63;;;5.78;;
41233;SDS011;26968;42.686;23.352;2023-06-19T05:52:43;11.55;;;6.60;;
41233;SDS011;26968;42.686;23.352;2023-06-19T05:55:10;12.30;;;6.47;;
41233;SDS011;26968;42.686;23.352;2023-06-19T05:57:38;12.32;;;6.40;;
41233;SDS011;26968;42.686;23.352;2023-06-19T06:00:04;9.10;;;5.85;;
41233;SDS011;26968;42.686;23.352;2023-06-19T06:02:31;11.55;;;6.07;;
41233;SDS011;26968;42.686;23.352;2023-06-19T06:04:57;8.50;;;5.75;;
41233;SDS011;26968;42.686;23.352;2023-06-19T06:07:23;14.48;;;6.00;;
41233;SDS011;26968;42.686;23.352;2023-06-19T06:09:48;13.10;;;6.80;;
41233;SDS011;26968;42.686;23.352;2023-06-19T06:12:13;10.52;;;5.90;;
41233;SDS011;26968;42.686;23.352;2023-06-19T06:14:40;12.43;;;5.78;;
41233;SDS011;26968;42.686;23.352;2023-06-19T06:17:06;11.80;;;5.70;;
41233;SDS011;26968;42.686;23.352;2023-06-19T06:19:32;14.90;;;7.35;;
41233;SDS011;26968;42.686;23.352;2023-06-19T06:21:57;21.98;;;5.68;;
41233;SDS011;26968;42.686;23.352;2023-06-19T06:24:23;8.85;;;6.03;;
41233;SDS011;26968;42.686;23.352;2023-06-19T06:26:48;11.52;;;6.03;;
41233;SDS011;26968;42.686;23.352;2023-06-19T06:29:14;9.90;;;5.60;;
41233;SDS011;26968;42.686;23.352;2023-06-19T06:31:39;12.52;;;5.43;;
41233;SDS011;26968;42.686;23.352;2023-06-19T06:34:06;14.15;;;6.75;;
41233;SDS011;26968;42.686;23.352;2023-06-19T06:36:32;11.10;;;5.88;;
41233;SDS011;26968;42.686;23.352;2023-06-19T06:38:57;6.32;;;4.55;;
41233;SDS011;26968;42.686;23.352;2023-06-19T06:41:23;9.55;;;5.20;;
41233;SDS011;26968;42.686;23.352;2023-06-19T06:43:48;7.50;;;5.45;;
41233;SDS011;26968;42.686;23.352;2023-06-19T06:46:13;8.50;;;5.72;;
41233;SDS011;26968;42.686;23.352;2023-06-19T06:48:39;10.15;;;5.60;;
41233;SDS011;26968;42.686;23.352;2023-06-19T06:51:05;8.23;;;5.57;;
41233;SDS011;26968;42.686;23.352;2023-06-19T06:53:30;9.15;;;5.30;;
41233;SDS011;26968;42.686;23.352;2023-06-19T06:55:59;12.95;;;6.00;;
41233;SDS011;26968;42.686;23.352;2023-06-19T06:58:25;17.92;;;5.28;;
41233;SDS011;26968;42.686;23.352;2023-06-19T07:00:51;11.07;;;5.63;;
41233;SDS011;26968;42.686;23.352;2023-06-19T07:03:17;10.13;;;4.80;;
41233;SDS011;26968;42.686;23.352;2023-06-19T07:05:45;14.93;;;6.43;;
41233;SDS011;26968;42.686;23.352;2023-06-19T07:08:10;10.82;;;5.47;;
41233;SDS011;26968;42.686;23.352;2023-06-19T07:10:36;9.77;;;5.15;;
41233;SDS011;26968;42.686;23.352;2023-06-19T07:13:01;11.90;;;5.65;;
41233;SDS011;26968;42.686;23.352;2023-06-19T07:15:27;7.70;;;4.80;;
41233;SDS011;26968;42.686;23.352;2023-06-19T07:17:52;12.63;;;5.32;;
41233;SDS011;26968;42.686;23.352;2023-06-19T07:20:18;11.30;;;5.43;;
41233;SDS011;26968;42.686;23.352;2023-06-19T07:22:43;6.32;;;4.85;;
41233;SDS011;26968;42.686;23.352;2023-06-19T07:25:10;9.50;;;6.03;;
41233;SDS011;26968;42.686;23.352;2023-06-19T07:27:37;10.90;;;5.93;;
41233;SDS011;26968;42.686;23.352;2023-06-19T07:30:02;10.35;;;5.43;;
41233;SDS011;26968;42.686;23.352;2023-06-19T07:32:28;8.65;;;5.40;;
41233;SDS011;26968;42.686;23.352;2023-06-19T07:34:53;11.23;;;5.45;;
41233;SDS011;26968;42.686;23.352;2023-06-19T07:37:23;10.23;;;5.22;;
41233;SDS011;26968;42.686;23.352;2023-06-19T07:39:49;8.77;;;5.03;;
41233;SDS011;26968;42.686;23.352;2023-06-19T07:42:16;9.75;;;4.85;;
41233;SDS011;26968;42.686;23.352;2023-06-19T07:44:43;11.55;;;5.63;;
41233;SDS011;26968;42.686;23.352;2023-06-19T07:47:09;6.68;;;4.70;;
41233;SDS011;26968;42.686;23.352;2023-06-19T07:49:35;8.27;;;5.05;;
41233;SDS011;26968;42.686;23.352;2023-06-19T07:52:01;7.10;;;5.45;;
41233;SDS011;26968;42.686;23.352;2023-06-19T07:54:27;9.85;;;5.32;;
41233;SDS011;26968;42.686;23.352;2023-06-19T07:56:52;6.60;;;4.53;;
41233;SDS011;26968;42.686;23.352;2023-06-19T07:59:18;8.88;;;5.03;;
41233;SDS011;26968;42.686;23.352;2023-06-19T08:01:43;7.88;;;5.05;;
41233;SDS011;26968;42.686;23.352;2023-06-19T08:04:09;6.45;;;4.57;;
41233;SDS011;26968;42.686;23.352;2023-06-19T08:06:35;7.50;;;5.18;;
41233;SDS011;26968;42.686;23.352;2023-06-19T08:09:00;7.22;;;5.00;;
41233;SDS011;26968;42.686;23.352;2023-06-19T08:11:27;8.35;;;4.75;;
41233;SDS011;26968;42.686;23.352;2023-06-19T08:13:52;6.40;;;4.13;;
41233;SDS011;26968;42.686;23.352;2023-06-19T08:16:18;13.77;;;5.15;;
41233;SDS011;26968;42.686;23.352;2023-06-19T08:18:43;10.77;;;5.03;;
41233;SDS011;26968;42.686;23.352;2023-06-19T08:21:10;8.20;;;4.85;;
41233;SDS011;26968;42.686;23.352;2023-06-19T08:23:35;7.72;;;4.60;;
41233;SDS011;26968;42.686;23.352;2023-06-19T08:26:02;5.72;;;4.18;;
41233;SDS011;26968;42.686;23.352;2023-06-19T08:28:28;5.20;;;4.18;;
41233;SDS011;26968;42.686;23.352;2023-06-19T08:30:54;6.45;;;4.45;;
41233;SDS011;26968;42.686;23.352;2023-06-19T08:33:20;7.72;;;4.60;;
41233;SDS011;26968;42.686;23.352;2023-06-19T08:35:45;6.35;;;4.60;;
41233;SDS011;26968;42.686;23.352;2023-06-19T08:38:13;8.57;;;4.88;;
41233;SDS011;26968;42.686;23.352;2023-06-19T08:40:38;7.32;;;4.45;;
41233;SDS011;26968;42.686;23.352;2023-06-19T08:43:04;13.52;;;4.93;;
41233;SDS011;26968;42.686;23.352;2023-06-19T08:45:29;7.65;;;4.40;;
41233;SDS011;26968;42.686;23.352;2023-06-19T08:47:58;8.55;;;4.50;;
41233;SDS011;26968;42.686;23.352;2023-06-19T08:50:25;7.60;;;4.88;;
41233;SDS011;26968;42.686;23.352;2023-06-19T08:52:51;6.28;;;3.97;;
41233;SDS011;26968;42.686;23.352;2023-06-19T08:55:16;9.57;;;4.82;;
41233;SDS011;26968;42.686;23.352;2023-06-19T08:57:41;11.60;;;5.25;;
41233;SDS011;26968;42.686;23.352;2023-06-19T09:00:07;6.30;;;4.65;;
41233;SDS011;26968;42.686;23.352;2023-06-19T09:02:39;7.03;;;4.45;;
41233;SDS011;26968;42.686;23.352;2023-06-19T09:05:13;5.28;;;4.18;;
41233;SDS011;26968;42.686;23.352;2023-06-19T09:07:40;6.22;;;4.75;;
41233;SDS011;26968;42.686;23.352;2023-06-19T09:10:13;12.07;;;4.32;;
41233;SDS011;26968;42.686;23.352;2023-06-19T09:12:41;11.13;;;4.20;;
41233;SDS011;26968;42.686;23.352;2023-06-19T09:15:11;6.40;;;4.47;;
41233;SDS011;26968;42.686;23.352;2023-06-19T09:17:38;6.10;;;4.28;;
41233;SDS011;26968;42.686;23.352;2023-06-19T09:20:03;5.85;;;3.92;;
41233;SDS011;26968;42.686;23.352;2023-06-19T09:22:31;6.13;;;4.07;;
41233;SDS011;26968;42.686;23.352;2023-06-19T09:24:59;6.82;;;4.38;;
41233;SDS011;26968;42.686;23.352;2023-06-19T09:27:31;6.28;;;4.15;;
41233;SDS011;26968;42.686;23.352;2023-06-19T09:29:57;9.27;;;4.90;;
41233;SDS011;26968;42.686;23.352;2023-06-19T09:32:27;6.22;;;4.05;;
41233;SDS011;26968;42.686;23.352;2023-06-19T09:34:54;5.60;;;3.88;;
41233;SDS011;26968;42.686;23.352;2023-06-19T09:37:27;5.55;;;4.00;;
41233;SDS011;26968;42.686;23.352;2023-06-19T09:39:57;8.88;;;4.20;;
41233;SDS011;26968;42.686;23.352;2023-06-19T09:42:32;9.05;;;4.55;;
41233;SDS011;26968;42.686;23.352;2023-06-19T09:45:00;5.25;;;4.47;;
41233;SDS011;26968;42.686;23.352;2023-06-19T09:50:02;5.13;;;3.92;;
41233;SDS011;26968;42.686;23.352;2023-06-19T09:52:28;7.30;;;4.18;;
41233;SDS011;26968;42.686;23.352;2023-06-19T09:54:55;9.10;;;4.35;;
41233;SDS011;26968;42.686;23.352;2023-06-19T09:57:23;8.63;;;4.00;;
41233;SDS011;26968;42.686;23.352;2023-06-19T09:59:55;5.45;;;3.67;;
41233;SDS011;26968;42.686;23.352;2023-06-19T10:02:22;8.70;;;4.00;;
41233;SDS011;26968;42.686;23.352;2023-06-19T10:04:51;11.00;;;3.70;;
41233;SDS011;26968;42.686;23.352;2023-06-19T10:07:20;15.75;;;6.28;;
41233;SDS011;26968;42.686;23.352;2023-06-19T10:12:42;5.07;;;3.92;;
41233;SDS011;26968;42.686;23.352;2023-06-19T10:17:44;5.25;;;3.50;;
41233;SDS011;26968;42.686;23.352;2023-06-19T10:20:20;5.72;;;3.67;;
41233;SDS011;26968;42.686;23.352;2023-06-19T10:23:12;11.52;;;4.03;;
41233;SDS011;26968;42.686;23.352;2023-06-19T10:26:08;8.73;;;3.80;;
41233;SDS011;26968;42.686;23.352;2023-06-19T10:28:33;9.63;;;3.88;;
41233;SDS011;26968;42.686;23.352;2023-06-19T10:33:30;6.90;;;3.75;;
41233;SDS011;26968;42.686;23.352;2023-06-19T10:35:58;7.75;;;3.63;;
41233;SDS011;26968;42.686;23.352;2023-06-19T10:38:25;5.90;;;3.70;;
41233;SDS011;26968;42.686;23.352;2023-06-19T10:40:50;5.47;;;3.45;;
41233;SDS011;26968;42.686;23.352;2023-06-19T10:43:23;5.10;;;3.63;;
41233;SDS011;26968;42.686;23.352;2023-06-19T10:45:53;6.75;;;4.07;;
41233;SDS011;26968;42.686;23.352;2023-06-19T10:48:22;5.40;;;4.13;;
41233;SDS011;26968;42.686;23.352;2023-06-19T10:50:49;6.07;;;4.30;;
41233;SDS011;26968;42.686;23.352;2023-06-19T10:53:25;10.93;;;4.45;;
41233;SDS011;26968;42.686;23.352;2023-06-19T10:55:58;4.10;;;3.67;;
41233;SDS011;26968;42.686;23.352;2023-06-19T10:58:26;5.70;;;4.10;;
41233;SDS011;26968;42.686;23.352;2023-06-19T11:00:55;7.65;;;4.13;;
41233;SDS011;26968;42.686;23.352;2023-06-19T11:03:22;5.13;;;4.10;;
41233;SDS011;26968;42.686;23.352;2023-06-19T11:05:47;7.57;;;4.00;;
41233;SDS011;26968;42.686;23.352;2023-06-19T11:08:18;3.80;;;3.40;;
41233;SDS011;26968;42.686;23.352;2023-06-19T11:10:44;6.80;;;4.18;;
41233;SDS011;26968;42.686;23.352;2023-06-19T11:13:13;8.75;;;4.40;;
41233;SDS011;26968;42.686;23.352;2023-06-19T11:15:40;6.72;;;4.47;;
41233;SDS011;26968;42.686;23.352;2023-06-19T11:18:06;5.80;;;4.70;;
41233;SDS011;26968;42.686;23.352;2023-06-19T11:20:42;9.57;;;4.68;;
41233;SDS011;26968;42.686;23.352;2023-06-19T11:23:28;8.52;;;4.45;;
41233;SDS011;26968;42.686;23.352;2023-06-19T11:26:01;6.38;;;4.40;;
41233;SDS011;26968;42.686;23.352;2023-06-19T11:28:30;5.78;;;4.60;;
41233;SDS011;26968;42.686;23.352;2023-06-19T11:30:59;6.75;;;4.60;;
41233;SDS011;26968;42.686;23.352;2023-06-19T11:33:29;10.40;;;4.30;;
41233;SDS011;26968;42.686;23.352;2023-06-19T11:35:58;8.05;;;4.60;;
41233;SDS011;26968;42.686;23.352;2023-06-19T11:38:25;10.52;;;4.03;;
41233;SDS011;26968;42.686;23.352;2023-06-19T11:40:52;11.18;;;4.45;;
41233;SDS011;26968;42.686;23.352;2023-06-19T11:43:26;8.43;;;4.63;;
41233;SDS011;26968;42.686;23.352;2023-06-19T11:45:52;7.88;;;4.60;;
41233;SDS011;26968;42.686;23.352;2023-06-19T11:48:25;6.20;;;4.25;;
41233;SDS011;26968;42.686;23.352;2023-06-19T11:50:51;6.70;;;4.70;;
41233;SDS011;26968;42.686;23.352;2023-06-19T11:53:17;12.02;;;4.68;;
41233;SDS011;26968;42.686;23.352;2023-06-19T11:55:43;7.63;;;4.82;;
41233;SDS011;26968;42.686;23.352;2023-06-19T11:58:09;10.48;;;4.60;;
41233;SDS011;26968;42.686;23.352;2023-06-19T12:00:36;7.53;;;4.47;;
41233;SDS011;26968;42.686;23.352;2023-06-19T12:03:02;7.15;;;4.50;;
41233;SDS011;26968;42.686;23.352;2023-06-19T12:05:28;12.40;;;5.15;;
41233;SDS011;26968;42.686;23.352;2023-06-19T12:07:54;5.35;;;4.57;;
41233;SDS011;26968;42.686;23.352;2023-06-19T12:10:19;10.65;;;4.60;;
41233;SDS011;26968;42.686;23.352;2023-06-19T12:12:45;7.97;;;4.10;;
41233;SDS011;26968;42.686;23.352;2023-06-19T12:15:10;8.60;;;4.50;;
41233;SDS011;26968;42.686;23.352;2023-06-19T12:17:35;10.98;;;8.13;;
41233;SDS011;26968;42.686;23.352;2023-06-19T12:20:02;9.52;;;4.68;;
41233;SDS011;26968;42.686;23.352;2023-06-19T12:22:31;7.78;;;4.90;;
41233;SDS011;26968;42.686;23.352;2023-06-19T12:24:58;7.00;;;4.18;;
41233;SDS011;26968;42.686;23.352;2023-06-19T12:27:23;5.75;;;4.43;;
41233;SDS011;26968;42.686;23.352;2023-06-19T12:29:49;6.63;;;4.50;;
41233;SDS011;26968;42.686;23.352;2023-06-19T12:32:14;6.75;;;4.55;;
41233;SDS011;26968;42.686;23.352;2023-06-19T12:34:40;7.57;;;4.75;;
41233;SDS011;26968;42.686;23.352;2023-06-19T12:37:05;7.47;;;4.85;;
41233;SDS011;26968;42.686;23.352;2023-06-19T12:39:32;7.10;;;4.38;;
41233;SDS011;26968;42.686;23.352;2023-06-19T12:41:57;6.28;;;4.43;;
41233;SDS011;26968;42.686;23.352;2023-06-19T12:44:23;7.82;;;4.65;;
41233;SDS011;26968;42.686;23.352;2023-06-19T12:46:49;7.40;;;4.47;;
41233;SDS011;26968;42.686;23.352;2023-06-19T12:49:15;6.60;;;3.83;;
41233;SDS011;26968;42.686;23.352;2023-06-19T12:51:40;9.27;;;4.60;;
41233;SDS011;26968;42.686;23.352;2023-06-19T12:54:06;7.47;;;4.90;;
41233;SDS011;26968;42.686;23.352;2023-06-19T12:56:31;10.98;;;4.72;;
41233;SDS011;26968;42.686;23.352;2023-06-19T12:58:57;8.38;;;5.10;;
41233;SDS011;26968;42.686;23.352;2023-06-19T13:01:22;8.35;;;4.53;;
41233;SDS011;26968;42.686;23.352;2023-06-19T13:03:47;6.13;;;4.68;;
41233;SDS011;26968;42.686;23.352;2023-06-19T13:06:13;7.88;;;4.90;;
41233;SDS011;26968;42.686;23.352;2023-06-19T13:08:38;6.22;;;4.45;;
41233;SDS011;26968;42.686;23.352;2023-06-19T13:11:04;9.23;;;4.28;;
41233;SDS011;26968;42.686;23.352;2023-06-19T13:13:29;8.75;;;4.05;;
41233;SDS011;26968;42.686;23.352;2023-06-19T13:15:54;6.32;;;4.30;;
41233;SDS011;26968;42.686;23.352;2023-06-19T13:18:20;6.65;;;4.45;;
41233;SDS011;26968;42.686;23.352;2023-06-19T13:20:46;11.27;;;4.25;;
41233;SDS011;26968;42.686;23.352;2023-06-19T13:23:13;9.10;;;4.57;;
41233;SDS011;26968;42.686;23.352;2023-06-19T13:25:39;7.32;;;4.20;;
41233;SDS011;26968;42.686;23.352;2023-06-19T13:28:04;7.07;;;5.28;;
41233;SDS011;26968;42.686;23.352;2023-06-19T13:30:30;9.40;;;4.70;;
41233;SDS011;26968;42.686;23.352;2023-06-19T13:32:55;7.18;;;3.95;;
41233;SDS011;26968;42.686;23.352;2023-06-19T13:35:21;7.35;;;4.03;;
41233;SDS011;26968;42.686;23.352;2023-06-19T13:37:47;7.72;;;4.70;;
41233;SDS011;26968;42.686;23.352;2023-06-19T13:40:12;6.68;;;4.22;;
41233;SDS011;26968;42.686;23.352;2023-06-19T13:42:38;7.10;;;4.68;;
41233;SDS011;26968;42.686;23.352;2023-06-19T13:45:03;7.13;;;4.88;;
41233;SDS011;26968;42.686;23.352;2023-06-19T13:47:30;6.28;;;4.40;;
41233;SDS011;26968;42.686;23.352;2023-06-19T13:49:55;6.72;;;3.97;;
41233;SDS011;26968;42.686;23.352;2023-06-19T13:52:21;7.22;;;3.78;;
41233;SDS011;26968;42.686;23.352;2023-06-19T13:54:47;4.88;;;3.92;;
41233;SDS011;26968;42.686;23.352;2023-06-19T13:57:13;7.65;;;3.83;;
41233;SDS011;26968;42.686;23.352;2023-06-19T13:59:38;6.18;;;3.58;;
41233;SDS011;26968;42.686;23.352;2023-06-19T14:02:04;5.32;;;4.15;;
41233;SDS011;26968;42.686;23.352;2023-06-19T14:04:29;5.35;;;3.92;;
41233;SDS011;26968;42.686;23.352;2023-06-19T14:06:55;8.68;;;4.10;;
41233;SDS011;26968;42.686;23.352;2023-06-19T14:09:20;4.13;;;3.67;;
41233;SDS011;26968;42.686;23.352;2023-06-19T14:11:46;11.40;;;4.32;;
41233;SDS011;26968;42.686;23.352;2023-06-19T14:14:12;9.55;;;4.15;;
41233;SDS011;26968;42.686;23.352;2023-06-19T14:16:37;4.97;;;4.20;;
41233;SDS011;26968;42.686;23.352;2023-06-19T14:19:03;7.35;;;4.43;;
41233;SDS011;26968;42.686;23.352;2023-06-19T14:21:28;5.07;;;3.95;;
41233;SDS011;26968;42.686;23.352;2023-06-19T14:23:54;7.32;;;3.90;;
41233;SDS011;26968;42.686;23.352;2023-06-19T14:26:19;8.27;;;3.70;;
41233;SDS011;26968;42.686;23.352;2023-06-19T14:28:44;6.78;;;3.78;;
41233;SDS011;26968;42.686;23.352;2023-06-19T14:31:10;11.90;;;4.70;;
41233;SDS011;26968;42.686;23.352;2023-06-19T14:33:36;4.63;;;4.05;;
41233;SDS011;26968;42.686;23.352;2023-06-19T14:36:03;11.38;;;4.32;;